Terminal Aerodrome Forecast
Issued by NWS

Home | Current Version | Previous Version | Text Only | Print | Product List | Glossary On
Versions: 1 2 3 4 5 6 7 8 9 10 11 12 13 14 15 16 17 18
000
FTUS43 KEAX 231500 AAA
TAFSTJ
TAF AMD
KSTJ 231503Z 2315/2412 14010KT P6SM OVC025
     FM232200 14011KT 6SM -SHRA OVC020
     FM240430 15010KT 4SM RA BR OVC017=

USA.gov is the U.S. government's official web portal to all federal, state and local government web resources and services.